createdAt,value
2022-10-13T00:00:01.570Z,101469.06
2022-10-13T00:05:03.251Z,101460.38
2022-10-13T00:10:05.462Z,101461.31
2022-10-13T00:15:08.026Z,101463.94
2022-10-13T00:20:10.286Z,101458.22
2022-10-13T00:25:11.970Z,101460.38
2022-10-13T00:30:13.954Z,101452.22
2022-10-13T00:35:15.635Z,101451.09
2022-10-13T00:40:17.288Z,101452.75
2022-10-13T00:45:21.615Z,101451.13
2022-10-13T00:50:27.966Z,101448.16
2022-10-13T00:55:34.654Z,101445.56
2022-10-13T01:00:36.216Z,101443.25
2022-10-13T01:05:39.374Z,101448.38
2022-10-13T01:11:06.703Z,101429.69
2022-10-13T01:16:32.670Z,101425.47
2022-10-13T01:21:57.072Z,101420.41
2022-10-13T01:27:14.235Z,101413.38
2022-10-13T01:32:46.904Z,101406.84
2022-10-13T01:37:57.375Z,101402.22
2022-10-13T01:43:06.898Z,101397.16
2022-10-13T01:48:10.561Z,101396.66
2022-10-13T01:53:17.252Z,101389.34
2022-10-13T01:58:22.262Z,101389.66
2022-10-13T02:03:35.534Z,101388.34
2022-10-13T02:09:03.041Z,101379.97
2022-10-13T02:14:19.592Z,101366.03
2022-10-13T02:19:21.625Z,101372.91
2022-10-13T02:24:23.429Z,101368.66
2022-10-13T02:29:25.068Z,101357.34
2022-10-13T02:34:26.574Z,101363.56
2022-10-13T02:39:28.038Z,101373.56
2022-10-13T02:44:29.531Z,101368.00
2022-10-13T02:49:31.024Z,101370.47
2022-10-13T02:54:32.489Z,101375.53
2022-10-13T02:59:33.976Z,101367.66
2022-10-13T03:04:35.741Z,101371.44
2022-10-13T03:09:37.848Z,101376.19
2022-10-13T03:14:39.439Z,101367.50
2022-10-13T03:19:41.099Z,101373.09
2022-10-13T03:24:46.908Z,101356.69
2022-10-13T03:29:48.491Z,101353.94
2022-10-13T03:34:50.385Z,101345.59
2022-10-13T03:39:51.890Z,101338.72
2022-10-13T03:44:56.293Z,101336.91
2022-10-13T03:49:58.111Z,101329.22
2022-10-13T03:54:59.628Z,101332.97
2022-10-13T04:00:01.144Z,101329.22
2022-10-13T04:05:03.266Z,101326.25
2022-10-13T04:10:08.995Z,101320.50
2022-10-13T04:15:12.775Z,101321.84
2022-10-13T04:20:14.455Z,101328.53
2022-10-13T04:25:16.029Z,101321.63
2022-10-13T04:30:17.539Z,101309.53
2022-10-13T04:35:19.047Z,101310.50
2022-10-13T04:40:20.638Z,101303.59
2022-10-13T04:45:22.150Z,101308.66
2022-10-13T04:50:24.216Z,101307.50
2022-10-13T04:55:36.164Z,101302.78
2022-10-13T05:00:37.679Z,101293.91
2022-10-13T05:05:39.860Z,101307.00
2022-10-13T05:10:41.370Z,101305.06
2022-10-13T05:15:42.850Z,101304.53
2022-10-13T05:20:44.505Z,101297.69
2022-10-13T05:25:45.987Z,101288.50
2022-10-13T05:30:49.388Z,101298.19
2022-10-13T05:35:50.856Z,101270.88
2022-10-13T05:40:52.344Z,101274.00
2022-10-13T05:45:53.865Z,101290.69
2022-10-13T05:50:59.286Z,101264.19
2022-10-13T05:56:06.296Z,101261.69
2022-10-13T06:01:11.971Z,101259.75
2022-10-13T06:06:13.587Z,101270.06
2022-10-13T06:11:15.097Z,101267.28
2022-10-13T06:16:16.630Z,101264.16
2022-10-13T06:21:18.194Z,101263.69
2022-10-13T06:26:19.783Z,101267.09
2022-10-13T06:31:24.405Z,101257.28
2022-10-13T06:36:26.128Z,101268.38
2022-10-13T06:41:27.722Z,101264.41
2022-10-13T06:46:29.266Z,101261.31
2022-10-13T06:51:30.733Z,101263.88
2022-10-13T06:56:32.249Z,101274.78
2022-10-13T07:01:41.516Z,101258.41
2022-10-13T07:06:47.261Z,101269.28
2022-10-13T07:11:48.807Z,101270.31
2022-10-13T07:16:50.437Z,101278.56
2022-10-13T07:21:52.223Z,101268.84
2022-10-13T07:26:59.589Z,101268.41
2022-10-13T07:32:03.420Z,101274.34
2022-10-13T07:37:04.920Z,101265.50
2022-10-13T07:42:06.870Z,101265.91
2022-10-13T07:47:08.421Z,101265.16
2022-10-13T07:52:10.254Z,101265.25
2022-10-13T07:57:11.954Z,101252.03
2022-10-13T08:02:13.671Z,101253.34
2022-10-13T08:07:15.269Z,101264.41
2022-10-13T08:12:17.171Z,101268.44
2022-10-13T08:17:19.162Z,101282.41
2022-10-13T08:22:24.699Z,101270.50
2022-10-13T08:27:49.606Z,101261.19
2022-10-13T08:32:51.496Z,101273.75
2022-10-13T08:37:53.015Z,101270.41
2022-10-13T08:43:00.133Z,101261.19
2022-10-13T08:48:05.966Z,101260.66
2022-10-13T08:53:29.739Z,101259.44
2022-10-13T08:58:37.238Z,101252.28
2022-10-13T09:03:54.400Z,101247.28
2022-10-13T09:09:10.069Z,101248.50
2022-10-13T09:14:19.395Z,101248.78
2022-10-13T09:19:20.866Z,101248.84
2022-10-13T09:24:25.283Z,101240.50
2022-10-13T09:29:27.148Z,101238.28
2022-10-13T09:34:28.686Z,101243.25
2022-10-13T09:39:33.701Z,101231.31
2022-10-13T09:44:35.314Z,101231.13
2022-10-13T09:49:39.881Z,101238.22
2022-10-13T09:54:51.243Z,101234.38
2022-10-13T10:00:03.096Z,101229.69
2022-10-13T10:05:42.245Z,101231.88
2022-10-13T10:10:44.670Z,101220.13
2022-10-13T10:16:04.690Z,101216.63
2022-10-13T10:21:08.515Z,101208.19
2022-10-13T10:26:24.269Z,101205.59
2022-10-13T10:31:46.537Z,101195.59
2022-10-13T10:36:51.134Z,101197.38
2022-10-13T10:42:18.956Z,101198.75
2022-10-13T10:47:30.125Z,101190.88
2022-10-13T10:53:02.462Z,101185.41
2022-10-13T10:58:22.749Z,101175.97
2022-10-13T11:03:48.713Z,101169.47
2022-10-13T11:08:50.677Z,101158.91
2022-10-13T11:14:15.773Z,101157.88
2022-10-13T11:19:36.242Z,101160.72
2022-10-13T11:24:40.637Z,101148.41
2022-10-13T11:29:51.637Z,101143.97
2022-10-13T11:35:20.642Z,101150.19
2022-10-13T11:40:28.251Z,101140.53
2022-10-13T11:45:47.248Z,101132.72
2022-10-13T11:50:59.526Z,101128.09
2022-10-13T11:56:01.407Z,101125.63
2022-10-13T12:01:11.965Z,101116.38
2022-10-13T12:06:23.290Z,101110.38
2022-10-13T12:11:34.235Z,101111.97
2022-10-13T12:16:35.719Z,101113.31
2022-10-13T12:21:49.620Z,101112.44
2022-10-13T12:26:52.025Z,101104.97
2022-10-13T12:31:54.501Z,101106.00
2022-10-13T12:36:58.490Z,101100.09
2022-10-13T12:42:02.176Z,101092.41
2022-10-13T12:47:03.813Z,101096.78
2022-10-13T12:52:23.787Z,101095.72
2022-10-13T12:57:35.724Z,101090.19
2022-10-13T13:02:37.337Z,101091.56
2022-10-13T13:07:38.917Z,101087.56
2022-10-13T13:12:41.059Z,101094.59
2022-10-13T13:18:03.799Z,101090.53
2022-10-13T13:23:05.375Z,101085.47
2022-10-13T13:28:12.355Z,101084.63
2022-10-13T13:33:14.012Z,101088.72
2022-10-13T13:38:15.601Z,101092.66
2022-10-13T13:43:17.195Z,101080.44
2022-10-13T13:48:18.725Z,101079.63
2022-10-13T13:53:20.257Z,101073.59
2022-10-13T13:58:21.807Z,101076.19
2022-10-13T14:03:24.323Z,101069.91
2022-10-13T14:08:25.874Z,101061.53
2022-10-13T14:13:27.411Z,101060.34
2022-10-13T14:18:29.684Z,101054.44
2022-10-13T14:23:34.217Z,101047.19
2022-10-13T14:28:35.786Z,101041.34
2022-10-13T20:56:56.424Z,101079.13
2022-10-13T21:01:57.956Z,101071.22
